sensor_id;sensor_type;location;lat;lon;timestamp;pressure;altitude;pressure_sealevel;temperature;humidity
63901;BME280;50538;53.482;10.294;2023-02-13T00:09:40;103363.03;;;7.07;100.00
63901;BME280;50538;53.482;10.294;2023-02-13T00:19:40;103363.88;;;7.08;100.00
63901;BME280;50538;53.482;10.294;2023-02-13T00:29:41;103355.19;;;7.06;100.00
63901;BME280;50538;53.482;10.294;2023-02-13T00:39:41;103350.75;;;7.06;100.00
63901;BME280;50538;53.482;10.294;2023-02-13T00:49:41;103354.44;;;7.04;100.00
63901;BME280;50538;53.482;10.294;2023-02-13T00:59:42;103350.00;;;7.04;100.00
63901;BME280;50538;53.482;10.294;2023-02-13T01:09:42;103342.16;;;7.03;100.00
63901;BME280;50538;53.482;10.294;2023-02-13T01:19:43;103334.41;;;6.99;100.00
63901;BME280;50538;53.482;10.294;2023-02-13T01:29:43;103332.69;;;6.98;100.00
63901;BME280;50538;53.482;10.294;2023-02-13T01:39:43;103336.34;;;6.96;100.00
63901;BME280;50538;53.482;10.294;2023-02-13T01:49:45;103324.91;;;6.95;100.00
63901;BME280;50538;53.482;10.294;2023-02-13T01:59:49;103320.56;;;6.94;100.00
63901;BME280;50538;53.482;10.294;2023-02-13T02:09:55;103311.78;;;6.94;100.00
63901;BME280;50538;53.482;10.294;2023-02-13T02:30:31;103314.59;;;6.91;100.00
63901;BME280;50538;53.482;10.294;2023-02-13T02:41:09;103305.81;;;6.90;100.00
63901;BME280;50538;53.482;10.294;2023-02-13T02:51:40;103300.78;;;6.86;100.00
63901;BME280;50538;53.482;10.294;2023-02-13T03:01:43;103299.22;;;6.82;100.00
63901;BME280;50538;53.482;10.294;2023-02-13T03:12:03;103298.50;;;6.78;100.00
63901;BME280;50538;53.482;10.294;2023-02-13T03:22:28;103298.69;;;6.75;100.00
63901;BME280;50538;53.482;10.294;2023-02-13T03:53:02;103299.06;;;6.67;100.00
63901;BME280;50538;53.482;10.294;2023-02-13T04:03:22;103306.34;;;6.62;100.00
63901;BME280;50538;53.482;10.294;2023-02-13T04:13:26;103306.50;;;6.59;100.00
63901;BME280;50538;53.482;10.294;2023-02-13T04:23:29;103305.69;;;6.57;100.00
63901;BME280;50538;53.482;10.294;2023-02-13T04:33:30;103306.63;;;6.56;100.00
63901;BME280;50538;53.482;10.294;2023-02-13T04:43:30;103307.56;;;6.55;100.00
63901;BME280;50538;53.482;10.294;2023-02-13T04:53:30;103310.19;;;6.55;100.00
63901;BME280;50538;53.482;10.294;2023-02-13T05:03:31;103312.91;;;6.54;100.00
63901;BME280;50538;53.482;10.294;2023-02-13T05:13:31;103308.63;;;6.51;100.00
63901;BME280;50538;53.482;10.294;2023-02-13T05:23:32;103303.44;;;6.50;100.00
63901;BME280;50538;53.482;10.294;2023-02-13T05:33:32;103306.00;;;6.51;100.00
63901;BME280;50538;53.482;10.294;2023-02-13T05:43:33;103299.88;;;6.51;100.00
63901;BME280;50538;53.482;10.294;2023-02-13T05:53:33;103306.16;;;6.48;100.00
63901;BME280;50538;53.482;10.294;2023-02-13T06:03:34;103322.16;;;6.45;100.00
63901;BME280;50538;53.482;10.294;2023-02-13T06:13:34;103312.53;;;6.44;100.00
63901;BME280;50538;53.482;10.294;2023-02-13T06:23:35;103328.38;;;6.44;100.00
63901;BME280;50538;53.482;10.294;2023-02-13T06:33:35;103316.19;;;6.42;100.00
63901;BME280;50538;53.482;10.294;2023-02-13T06:43:36;103337.22;;;6.43;100.00
63901;BME280;50538;53.482;10.294;2023-02-13T06:53:36;103344.38;;;6.41;100.00
63901;BME280;50538;53.482;10.294;2023-02-13T07:03:36;103353.13;;;6.42;100.00
63901;BME280;50538;53.482;10.294;2023-02-13T07:13:36;103365.63;;;6.38;100.00
63901;BME280;50538;53.482;10.294;2023-02-13T07:23:37;103359.56;;;6.36;100.00
63901;BME280;50538;53.482;10.294;2023-02-13T07:33:37;103369.19;;;6.37;100.00
63901;BME280;50538;53.482;10.294;2023-02-13T07:43:37;103383.94;;;6.41;100.00
63901;BME280;50538;53.482;10.294;2023-02-13T07:53:38;103389.00;;;6.46;100.00
63901;BME280;50538;53.482;10.294;2023-02-13T08:03:39;103393.19;;;6.50;100.00
63901;BME280;50538;53.482;10.294;2023-02-13T08:13:39;103388.69;;;6.52;100.00
63901;BME280;50538;53.482;10.294;2023-02-13T08:23:40;103399.69;;;6.61;100.00
63901;BME280;50538;53.482;10.294;2023-02-13T08:33:40;103397.81;;;6.63;100.00
63901;BME280;50538;53.482;10.294;2023-02-13T08:43:41;103400.16;;;6.70;100.00
63901;BME280;50538;53.482;10.294;2023-02-13T08:53:41;103399.00;;;6.75;100.00
63901;BME280;50538;53.482;10.294;2023-02-13T09:03:42;103400.56;;;6.79;100.00
63901;BME280;50538;53.482;10.294;2023-02-13T09:13:42;103399.41;;;6.85;100.00
63901;BME280;50538;53.482;10.294;2023-02-13T09:23:43;103395.53;;;6.92;100.00
63901;BME280;50538;53.482;10.294;2023-02-13T09:33:44;103407.44;;;7.01;100.00
63901;BME280;50538;53.482;10.294;2023-02-13T09:43:59;103407.94;;;7.07;100.00
63901;BME280;50538;53.482;10.294;2023-02-13T09:54:05;103399.63;;;7.15;100.00
63901;BME280;50538;53.482;10.294;2023-02-13T10:15:15;103396.28;;;7.28;100.00
63901;BME280;50538;53.482;10.294;2023-02-13T10:25:24;103376.53;;;7.36;100.00
63901;BME280;50538;53.482;10.294;2023-02-13T10:35:29;103387.72;;;7.41;100.00
63901;BME280;50538;53.482;10.294;2023-02-13T11:05:43;103382.34;;;7.59;97.38
63901;BME280;50538;53.482;10.294;2023-02-13T11:16:04;103370.75;;;7.62;96.33
63901;BME280;50538;53.482;10.294;2023-02-13T11:26:10;103372.69;;;7.74;94.87
63901;BME280;50538;53.482;10.294;2023-02-13T11:36:24;103364.44;;;7.80;92.78
63901;BME280;50538;53.482;10.294;2023-02-13T11:46:42;103370.25;;;7.87;91.16
63901;BME280;50538;53.482;10.294;2023-02-13T11:56:52;103368.19;;;7.92;90.34
63901;BME280;50538;53.482;10.294;2023-02-13T12:07:11;103355.50;;;7.98;89.44
63901;BME280;50538;53.482;10.294;2023-02-13T12:17:22;103353.63;;;8.01;89.94
63901;BME280;50538;53.482;10.294;2023-02-13T12:27:45;103347.06;;;8.08;90.25
63901;BME280;50538;53.482;10.294;2023-02-13T12:38:14;103336.13;;;8.14;90.47
63901;BME280;50538;53.482;10.294;2023-02-13T13:09:05;103322.84;;;8.29;85.77
63901;BME280;50538;53.482;10.294;2023-02-13T13:19:18;103331.47;;;8.33;85.56
63901;BME280;50538;53.482;10.294;2023-02-13T13:29:27;103313.78;;;8.33;84.40
63901;BME280;50538;53.482;10.294;2023-02-13T13:49:58;103311.06;;;8.35;83.79
63901;BME280;50538;53.482;10.294;2023-02-13T14:10:03;103307.81;;;8.30;83.99
63901;BME280;50538;53.482;10.294;2023-02-13T14:20:19;103314.06;;;8.29;83.33
63901;BME280;50538;53.482;10.294;2023-02-13T14:30:27;103308.59;;;8.32;84.36
63901;BME280;50538;53.482;10.294;2023-02-13T14:40:48;103307.59;;;8.19;81.78
63901;BME280;50538;53.482;10.294;2023-02-13T14:50:51;103300.88;;;8.13;82.04
63901;BME280;50538;53.482;10.294;2023-02-13T15:10:59;103295.56;;;8.13;82.41
63901;BME280;50538;53.482;10.294;2023-02-13T15:21:00;103276.13;;;7.98;77.76
63901;BME280;50538;53.482;10.294;2023-02-13T15:31:03;103281.59;;;7.95;78.51
63901;BME280;50538;53.482;10.294;2023-02-13T15:41:21;103264.19;;;7.91;79.50
63901;BME280;50538;53.482;10.294;2023-02-13T15:51:27;103269.22;;;7.80;79.07
63901;BME280;50538;53.482;10.294;2023-02-13T16:01:32;103266.47;;;7.66;78.34
63901;BME280;50538;53.482;10.294;2023-02-13T16:11:38;103253.03;;;7.55;78.86
63901;BME280;50538;53.482;10.294;2023-02-13T16:21:39;103248.75;;;7.52;79.77
63901;BME280;50538;53.482;10.294;2023-02-13T16:31:40;103251.72;;;7.46;79.85
63901;BME280;50538;53.482;10.294;2023-02-13T16:41:42;103260.16;;;7.37;78.94
63901;BME280;50538;53.482;10.294;2023-02-13T16:51:53;103254.34;;;7.30;80.75
63901;BME280;50538;53.482;10.294;2023-02-13T17:02:14;103261.75;;;7.24;80.71
63901;BME280;50538;53.482;10.294;2023-02-13T17:12:17;103274.34;;;7.19;81.18
63901;BME280;50538;53.482;10.294;2023-02-13T17:22:30;103268.38;;;7.15;80.83
63901;BME280;50538;53.482;10.294;2023-02-13T17:32:32;103281.84;;;7.11;81.04
63901;BME280;50538;53.482;10.294;2023-02-13T17:42:32;103268.13;;;7.04;80.77
63901;BME280;50538;53.482;10.294;2023-02-13T17:52:34;103266.56;;;7.00;81.23
63901;BME280;50538;53.482;10.294;2023-02-13T18:02:35;103278.16;;;6.97;81.26
63901;BME280;50538;53.482;10.294;2023-02-13T18:12:37;103282.81;;;6.92;82.03
63901;BME280;50538;53.482;10.294;2023-02-13T18:22:40;103284.59;;;6.92;82.51
63901;BME280;50538;53.482;10.294;2023-02-13T18:32:41;103292.53;;;6.92;82.62
63901;BME280;50538;53.482;10.294;2023-02-13T18:42:41;103283.13;;;6.86;82.37
63901;BME280;50538;53.482;10.294;2023-02-13T18:52:45;103275.53;;;6.80;81.37
63901;BME280;50538;53.482;10.294;2023-02-13T19:02:45;103270.41;;;6.77;80.43
63901;BME280;50538;53.482;10.294;2023-02-13T19:12:46;103279.34;;;6.75;81.54
63901;BME280;50538;53.482;10.294;2023-02-13T19:22:47;103272.34;;;6.74;81.41
63901;BME280;50538;53.482;10.294;2023-02-13T19:32:47;103274.28;;;6.70;82.23
63901;BME280;50538;53.482;10.294;2023-02-13T19:42:48;103281.59;;;6.65;81.55
63901;BME280;50538;53.482;10.294;2023-02-13T19:52:49;103263.97;;;6.65;82.77
63901;BME280;50538;53.482;10.294;2023-02-13T20:02:50;103277.25;;;6.64;83.34
63901;BME280;50538;53.482;10.294;2023-02-13T20:12:50;103270.44;;;6.58;81.83
63901;BME280;50538;53.482;10.294;2023-02-13T20:22:53;103275.81;;;6.57;82.30
63901;BME280;50538;53.482;10.294;2023-02-13T20:32:53;103278.53;;;6.55;82.65
63901;BME280;50538;53.482;10.294;2023-02-13T20:42:54;103282.00;;;6.56;84.24
63901;BME280;50538;53.482;10.294;2023-02-13T20:52:54;103300.78;;;6.50;81.68
63901;BME280;50538;53.482;10.294;2023-02-13T21:02:54;103309.50;;;6.52;83.61
63901;BME280;50538;53.482;10.294;2023-02-13T21:12:55;103305.28;;;6.48;82.51
63901;BME280;50538;53.482;10.294;2023-02-13T21:22:55;103304.56;;;6.46;82.81
63901;BME280;50538;53.482;10.294;2023-02-13T21:32:55;103311.69;;;6.44;84.74
63901;BME280;50538;53.482;10.294;2023-02-13T21:42:56;103300.28;;;6.43;85.23
63901;BME280;50538;53.482;10.294;2023-02-13T21:52:56;103312.84;;;6.38;85.54
63901;BME280;50538;53.482;10.294;2023-02-13T22:02:57;103325.19;;;6.38;86.72
63901;BME280;50538;53.482;10.294;2023-02-13T22:12:57;103314.84;;;6.33;87.22
63901;BME280;50538;53.482;10.294;2023-02-13T22:22:57;103312.38;;;6.30;87.11
63901;BME280;50538;53.482;10.294;2023-02-13T22:32:58;103323.84;;;6.29;87.30
63901;BME280;50538;53.482;10.294;2023-02-13T22:42:58;103322.28;;;6.25;87.78
63901;BME280;50538;53.482;10.294;2023-02-13T22:52:59;103329.41;;;6.23;88.26
63901;BME280;50538;53.482;10.294;2023-02-13T23:03:00;103325.22;;;6.19;88.18
63901;BME280;50538;53.482;10.294;2023-02-13T23:13:00;103318.44;;;6.13;87.82
63901;BME280;50538;53.482;10.294;2023-02-13T23:23:01;103321.22;;;6.10;87.10
63901;BME280;50538;53.482;10.294;2023-02-13T23:33:01;103320.66;;;6.04;86.61
63901;BME280;50538;53.482;10.294;2023-02-13T23:43:02;103312.81;;;6.02;87.72
63901;BME280;50538;53.482;10.294;2023-02-13T23:53:02;103317.19;;;6.03;88.38
